Aérodrome :
LOGIN :

S'inscrire | Disclaimer

   EN    FR    IT 

 










Légende :    VFR   VFR Marginal   IFR   IFR Intensif   IFR Très Intensif
Visi : 
Plafond : 
>= 8 km
>= 3000ft
5 à 8 km
1000 à 3000 ft
1500m à 5 km
500 à 1000 ft
800 à 1500m
200 à 500 ft
< 800m
< 200 ft
Symboles :   Orages  Brouillard  Fortes neiges  Fortes précipitations  Vent > 20 kt
SIGMETs :   Divers  Orages  Givrage  Turbulence  Onde Orograph.  Cendres Volcan.






- Altitude de l'aérodrome : 408 ft
- Code IATA : FKB


EDSB - Karlsruhe Baden Baden

DERNIER METAR :
  • 080420Z 21007KT 9000 RA BKN033 04/03 Q1000

METARs EXPIRÉS :
  • 080350Z AUTO 24004KT 9999 // BKN036/// OVC053/// 04/03 Q1000
  • 080320Z AUTO 24003KT 9999 // OVC058/// 03/02 Q1000
  • 080250Z AUTO 23004KT 9999 // FEW042/// OVC066/// 03/02 Q1000
  • 080220Z AUTO 17006KT 9999 // FEW041/// SCT057/// OVC067/// 03/02 Q1000
  • 080150Z AUTO 12006KT 9000 // SCT034/// OVC051/// 02/02 Q1001

TAF TAF EDSB
Valide du 08 à 00h jusqu'au 09 à 00h UTC


072300Z 0800/0824 21003KT 9999 SCT040
TEMPO 0800/0804 4000 RASN



MET'MAP, la Météo Aéronautique d'un coup d'oeil ! - Copyright ORBIFLY Décembre 2007 - Disclaimer

ORBIFLY MET'MAP TEAM :

Programmation & Développement : Alexandra Zaïnal
Sur une idée originale de : Baudouin d'Aumeries
Assistance à la programmation : Marc-Olivier Méhu
Soutien technique & logistique : Manuel Goepfert

Contact : metmap@orbifly.com




SOURCES & CREDITS :

   NOAA